IAD weather

Public forecast

Using degrees Fahrenheit for public forecast. Weather courtesy of forecast.io.

Current aviation weather report (METAR) for Washington Dulles International Airport

Retrieved 2020/08/10 09:52 UTC (54 minutes ago):

KIAD 100952Z 15003KT 9SM BCFG CLR 22/21 A3007 RMK AO2 SLP180 T02170211

Aviation forecast (TAF) for Washington Dulles International Airport

Retrieved 2020/08/10 06:36 UTC (4 hours ago):

TAF KIAD 100535Z 1006/1112 VRB03KT P6SM SKC FM100900 VRB03KT 5SM BR FEW250 FM101200 00000KT P6SM SCT250 FM111100 18004KT P6SM SCT100